Time;durP1;ratioP1;P1;durP2;ratioP2;P2;SDS_P1;SDS_P2;PMS_P1;PMS_P2;Temp;Humidity;BMP_temperature;BMP_pressure;BME280_temperature;BME280_humidity;BME280_pressure;Samples;Min_cycle;Max_cycle;Signal;HPM_P1;HPM_P2
2021/04/19 00:00:34;;;;;;;20.97;8.50;;;7.50;87.00;;;;;;5055228;28;20156;-82
2021/04/19 00:02:59;;;;;;;17.30;8.27;;;7.50;86.70;;;;;;5053280;28;20185;-83
2021/04/19 00:05:25;;;;;;;13.33;8.27;;;7.50;86.90;;;;;;5053212;28;20179;-83
2021/04/19 00:07:51;;;;;;;17.13;9.27;;;7.40;87.20;;;;;;5054489;28;20178;-83
2021/04/19 00:10:19;;;;;;;14.53;10.00;;;7.30;87.70;;;;;;5053368;28;20191;-83
2021/04/19 00:12:45;;;;;;;13.37;8.80;;;7.30;87.60;;;;;;5054622;28;20270;-83
2021/04/19 00:15:12;;;;;;;18.80;9.67;;;7.30;87.70;;;;;;5054388;28;20181;-83
2021/04/19 00:17:38;;;;;;;15.53;8.43;;;7.30;87.80;;;;;;5054314;28;20530;-83
2021/04/19 00:20:05;;;;;;;18.37;9.43;;;7.30;88.00;;;;;;5053378;28;20193;-83
2021/04/19 00:22:31;;;;;;;27.47;10.40;;;7.30;88.10;;;;;;5054164;28;20180;-83
2021/04/19 00:24:57;;;;;;;15.40;10.10;;;7.20;88.20;;;;;;5052869;28;20673;-83
2021/04/19 00:27:23;;;;;;;22.50;9.90;;;7.10;88.20;;;;;;5054146;28;20175;-83
2021/04/19 00:29:48;;;;;;;19.90;10.43;;;7.10;88.20;;;;;;5052705;28;20288;-83
2021/04/19 00:32:14;;;;;;;16.50;10.23;;;7.00;88.20;;;;;;5053916;28;20221;-83
2021/04/19 00:34:40;;;;;;;17.30;10.17;;;6.90;88.30;;;;;;5052860;28;20532;-83
2021/04/19 00:37:05;;;;;;;18.03;10.97;;;6.70;88.30;;;;;;5054147;28;20192;-83
2021/04/19 00:39:31;;;;;;;22.17;10.77;;;6.60;88.60;;;;;;5054125;28;20212;-83
2021/04/19 00:41:58;;;;;;;19.33;11.73;;;6.50;88.80;;;;;;5054010;28;20177;-83
2021/04/19 00:44:24;;;;;;;20.33;12.77;;;6.40;88.80;;;;;;5054072;28;20172;-83
2021/04/19 00:46:50;;;;;;;20.87;11.30;;;6.40;88.80;;;;;;5052470;28;20177;-83
2021/04/19 00:49:17;;;;;;;23.30;11.67;;;6.30;88.90;;;;;;5052450;28;20195;-83
2021/04/19 00:51:42;;;;;;;20.63;12.20;;;6.30;89.00;;;;;;5053733;28;20209;-83
2021/04/19 00:54:10;;;;;;;19.00;11.30;;;6.20;89.10;;;;;;5053796;28;20206;-83
2021/04/19 00:56:36;;;;;;;21.67;12.27;;;6.10;89.20;;;;;;5052633;28;20174;-83
2021/04/19 00:59:02;;;;;;;28.30;13.10;;;6.10;89.30;;;;;;5053667;28;20249;-82
2021/04/19 01:01:31;;;;;;;19.50;11.70;;;6.00;89.30;;;;;;5053826;28;20671;-83
2021/04/19 01:03:57;;;;;;;21.47;12.03;;;6.00;89.20;;;;;;5053703;28;20170;-83
2021/04/19 01:06:23;;;;;;;23.63;11.93;;;6.00;89.40;;;;;;5052291;28;20645;-83
2021/04/19 01:08:48;;;;;;;28.13;12.63;;;6.00;89.40;;;;;;5052290;28;20200;-82
2021/04/19 01:11:14;;;;;;;14.17;11.00;;;5.80;89.20;;;;;;5052277;28;20177;-83
2021/04/19 01:13:40;;;;;;;16.90;11.40;;;5.70;89.50;;;;;;5052073;28;20209;-83
2021/04/19 01:16:05;;;;;;;19.37;12.13;;;5.70;89.60;;;;;;5053681;28;20571;-83
2021/04/19 01:18:31;;;;;;;21.03;12.73;;;5.70;89.60;;;;;;5052061;28;20220;-83
2021/04/19 01:20:57;;;;;;;20.87;11.57;;;5.60;89.60;;;;;;5052003;28;20175;-83
2021/04/19 01:23:23;;;;;;;20.13;11.47;;;5.60;89.60;;;;;;5053407;28;20168;-83
2021/04/19 01:25:49;;;;;;;21.00;12.07;;;5.50;89.60;;;;;;5051973;28;20222;-83
2021/04/19 01:28:15;;;;;;;25.53;12.33;;;5.40;89.70;;;;;;5053185;28;20228;-82
2021/04/19 01:30:49;;;;;;;21.63;12.57;;;5.30;89.80;;;;;;5053282;28;20226;-83
2021/04/19 01:33:15;;;;;;;20.70;11.97;;;5.20;90.20;;;;;;5053219;28;20615;-83
2021/04/19 01:35:41;;;;;;;19.53;12.50;;;5.20;90.30;;;;;;5053120;28;20217;-83
2021/04/19 01:38:09;;;;;;;22.47;13.03;;;5.10;90.30;;;;;;5053174;28;20172;-83
2021/04/19 01:40:35;;;;;;;20.70;12.17;;;5.00;90.30;;;;;;5053224;28;20168;-83
2021/04/19 01:43:01;;;;;;;21.20;13.80;;;5.00;90.30;;;;;;5051768;28;20560;-83
2021/04/19 01:45:27;;;;;;;19.50;12.17;;;5.00;90.40;;;;;;5053179;28;20655;-83
2021/04/19 01:47:54;;;;;;;22.40;14.53;;;4.90;90.30;;;;;;5053134;28;20258;-82
2021/04/19 01:50:26;;;;;;;25.97;14.77;;;4.80;90.60;;;;;;5051868;28;20198;-83
2021/04/19 01:52:52;;;;;;;26.30;14.90;;;4.90;90.90;;;;;;5052913;28;20207;-83
2021/04/19 01:55:23;;;;;;;33.10;14.93;;;4.90;90.90;;;;;;5053325;28;20198;-83
2021/04/19 01:57:53;;;;;;;36.43;16.13;;;4.80;90.80;;;;;;5052951;28;20184;-83
2021/04/19 02:00:22;;;;;;;40.27;18.23;;;4.80;91.00;;;;;;5051772;28;20610;-83
2021/04/19 02:03:12;;;;;;;32.73;18.57;;;4.80;91.20;;;;;;5051648;28;20186;-82
2021/04/19 02:05:54;;;;;;;37.47;18.93;;;4.80;91.20;;;;;;5053269;28;20241;-83
2021/04/19 02:08:32;;;;;;;36.77;19.63;;;4.80;91.30;;;;;;5053071;28;20191;-82
2021/04/19 02:11:24;;;;;;;31.77;18.73;;;4.80;91.30;;;;;;5053588;28;20540;-83
2021/04/19 02:14:17;;;;;;;35.83;21.00;;;4.80;91.30;;;;;;5052892;28;20195;-83
2021/04/19 02:17:19;;;;;;;41.33;20.87;;;4.70;91.30;;;;;;5053083;28;20176;-83
2021/04/19 02:19:53;;;;;;;34.83;19.17;;;4.70;91.40;;;;;;5052800;28;20222;-83
2021/04/19 02:22:18;;;;;;;31.50;19.20;;;4.80;91.30;;;;;;5051587;28;20625;-83
2021/04/19 02:24:47;;;;;;;37.50;19.97;;;4.70;91.30;;;;;;5052970;28;20179;-83
2021/04/19 02:27:21;;;;;;;34.33;18.73;;;4.70;91.30;;;;;;5052651;28;20183;-82
2021/04/19 02:29:52;;;;;;;34.27;20.07;;;4.70;91.30;;;;;;5052807;28;20195;-83
2021/04/19 02:32:27;;;;;;;37.77;19.47;;;4.70;91.40;;;;;;5052746;28;20241;-83
2021/04/19 02:34:56;;;;;;;40.67;21.60;;;4.70;91.40;;;;;;5052945;28;20329;-83
2021/04/19 02:37:24;;;;;;;50.70;23.60;;;4.70;91.50;;;;;;5053166;28;20214;-83
2021/04/19 02:39:51;;;;;;;43.13;26.00;;;4.70;91.60;;;;;;5051304;28;20195;-83
2021/04/19 02:42:17;;;;;;;41.77;21.67;;;4.80;91.70;;;;;;5053090;28;20168;-83
2021/04/19 02:44:47;;;;;;;42.77;21.60;;;4.70;91.70;;;;;;5056109;28;20172;-83
2021/04/19 02:47:15;;;;;;;28.43;19.50;;;4.70;91.60;;;;;;5056353;28;20680;-83
2021/04/19 02:49:41;;;;;;;33.83;18.80;;;4.50;91.30;;;;;;5056013;28;20274;-83
2021/04/19 02:52:08;;;;;;;35.27;20.60;;;4.40;91.20;;;;;;5056004;28;20650;-83
2021/04/19 02:54:36;;;;;;;32.83;19.60;;;4.40;91.30;;;;;;5054732;28;20188;-83
2021/04/19 02:57:03;;;;;;;45.90;21.33;;;4.30;91.40;;;;;;5056117;28;20671;-83
2021/04/19 02:59:30;;;;;;;33.03;19.60;;;4.30;91.40;;;;;;5055539;28;20208;-83
2021/04/19 03:02:03;;;;;;;30.70;18.30;;;4.40;91.60;;;;;;5054586;28;20183;-83
2021/04/19 03:04:37;;;;;;;27.90;16.40;;;4.50;91.50;;;;;;5055795;28;20164;-83
2021/04/19 03:07:07;;;;;;;29.07;17.37;;;4.50;91.40;;;;;;5055713;28;20157;-83
2021/04/19 03:09:34;;;;;;;32.83;19.67;;;4.50;91.00;;;;;;5055690;28;20598;-83
2021/04/19 03:12:06;;;;;;;33.93;20.67;;;4.40;90.80;;;;;;5055635;28;20196;-83
2021/04/19 03:14:36;;;;;;;33.30;20.40;;;4.40;90.90;;;;;;5055518;28;20226;-83
2021/04/19 03:17:06;;;;;;;34.07;21.47;;;4.40;90.90;;;;;;5055603;28;20190;-83
2021/04/19 03:19:35;;;;;;;36.00;21.97;;;4.30;91.10;;;;;;5055357;28;20695;-83
2021/04/19 03:22:02;;;;;;;33.60;20.87;;;4.30;91.60;;;;;;5054470;28;20570;-83
2021/04/19 03:24:30;;;;;;;41.23;20.93;;;4.30;91.80;;;;;;5055609;28;20207;-83
2021/04/19 03:26:58;;;;;;;32.63;20.63;;;4.30;92.00;;;;;;5054127;28;20556;-83
2021/04/19 03:29:26;;;;;;;33.70;21.33;;;4.20;92.00;;;;;;5054037;28;20192;-83
2021/04/19 03:31:58;;;;;;;38.30;19.33;;;4.00;92.10;;;;;;5054077;28;20214;-83
2021/04/19 03:34:29;;;;;;;39.00;22.07;;;3.80;92.30;;;;;;5054028;28;20639;-82
2021/04/19 03:36:59;;;;;;;43.37;24.40;;;3.80;92.80;;;;;;5054130;28;20172;-83
2021/04/19 03:39:25;;;;;;;46.63;26.33;;;3.80;93.10;;;;;;5053957;28;20199;-83
2021/04/19 03:41:54;;;;;;;49.77;28.67;;;3.90;93.20;;;;;;5053852;28;20532;-83
2021/04/19 03:44:25;;;;;;;44.77;27.13;;;4.00;93.20;;;;;;5055141;28;20176;-83
2021/04/19 03:46:52;;;;;;;53.73;31.33;;;4.00;93.30;;;;;;5055159;28;20168;-83
2021/04/19 03:49:24;;;;;;;58.90;31.63;;;4.20;93.30;;;;;;5055025;28;20200;-83
2021/04/19 03:51:55;;;;;;;47.00;30.00;;;4.30;93.30;;;;;;5055190;28;20164;-83
2021/04/19 03:54:22;;;;;;;56.03;30.30;;;4.40;93.30;;;;;;5054980;28;20236;-83
2021/04/19 03:56:50;;;;;;;57.33;32.07;;;4.50;93.30;;;;;;5053460;28;20176;-83
2021/04/19 03:59:18;;;;;;;53.57;32.63;;;4.60;93.30;;;;;;5054561;28;20222;-83
2021/04/19 04:01:46;;;;;;;58.50;33.73;;;4.70;93.30;;;;;;5054968;28;20229;-83
2021/04/19 04:04:13;;;;;;;58.40;33.53;;;4.80;93.30;;;;;;5053383;28;20218;-83
2021/04/19 04:06:42;;;;;;;50.33;32.07;;;4.90;93.40;;;;;;5053217;28;20183;-83
2021/04/19 04:09:08;;;;;;;59.53;33.23;;;5.00;93.30;;;;;;5054885;28;20614;-83
2021/04/19 04:11:34;;;;;;;68.33;33.63;;;4.90;93.30;;;;;;5053394;28;20244;-82
2021/04/19 04:14:00;;;;;;;60.77;34.37;;;4.90;93.40;;;;;;5054416;28;20278;-83
2021/04/19 04:16:26;;;;;;;68.23;36.30;;;4.90;93.50;;;;;;5054608;28;20192;-83
2021/04/19 04:18:52;;;;;;;68.70;39.07;;;5.00;93.70;;;;;;5053241;28;20227;-82
2021/04/19 04:21:18;;;;;;;90.73;46.07;;;5.30;94.10;;;;;;5054370;28;20186;-83
2021/04/19 04:23:44;;;;;;;77.67;44.50;;;5.50;94.30;;;;;;5053041;28;20568;-83
2021/04/19 04:26:10;;;;;;;80.27;42.57;;;5.50;94.30;;;;;;5052939;28;20176;-82
2021/04/19 04:28:36;;;;;;;82.90;41.30;;;5.50;94.30;;;;;;5054260;28;20223;-82
2021/04/19 04:31:01;;;;;;;81.43;42.97;;;5.50;94.20;;;;;;5054345;28;20206;-82
2021/04/19 04:33:27;;;;;;;89.07;45.70;;;5.50;94.20;;;;;;5054256;28;20202;-83
2021/04/19 04:35:53;;;;;;;104.80;49.20;;;5.50;94.30;;;;;;5054038;28;20179;-83
2021/04/19 04:38:18;;;;;;;95.83;48.80;;;5.50;94.40;;;;;;5053939;28;20214;-82
2021/04/19 04:40:44;;;;;;;92.10;48.43;;;5.50;94.40;;;;;;5052830;28;20172;-83
2021/04/19 04:43:14;;;;;;;102.07;51.13;;;5.50;94.50;;;;;;5052732;28;20233;-82
2021/04/19 04:45:41;;;;;;;108.90;52.03;;;5.50;94.50;;;;;;5054306;28;20519;-83
2021/04/19 04:48:27;;;;;;;129.77;51.17;;;5.60;94.60;;;;;;5053812;28;20195;-82
2021/04/19 04:51:01;;;;;;;109.77;51.50;;;5.60;94.70;;;;;;5053900;28;20180;-83
2021/04/19 04:53:40;;;;;;;104.77;46.13;;;5.60;94.80;;;;;;5052473;28;20196;-83
2021/04/19 04:56:07;;;;;;;95.73;46.17;;;5.60;94.80;;;;;;5054247;28;20246;-83
2021/04/19 04:58:35;;;;;;;116.77;48.50;;;5.50;94.80;;;;;;5052233;28;20207;-83
2021/04/19 05:01:03;;;;;;;97.97;49.57;;;5.50;94.90;;;;;;5053624;28;20163;-83
2021/04/19 05:03:30;;;;;;;90.97;46.10;;;5.60;94.90;;;;;;5052477;28;20315;-82
2021/04/19 05:05:56;;;;;;;100.90;49.47;;;5.60;94.90;;;;;;5051876;28;20249;-83
2021/04/19 05:08:22;;;;;;;102.43;48.83;;;5.60;94.90;;;;;;5053647;28;20708;-83
2021/04/19 05:10:48;;;;;;;108.90;49.07;;;5.60;95.00;;;;;;5053567;28;20175;-83
2021/04/19 05:13:15;;;;;;;99.13;48.73;;;5.60;95.00;;;;;;5053492;28;20563;-83
2021/04/19 05:15:48;;;;;;;99.27;46.57;;;5.60;95.10;;;;;;5052294;28;20172;-83
2021/04/19 05:18:15;;;;;;;120.43;51.93;;;5.60;95.00;;;;;;5053373;28;20195;-82
2021/04/19 05:20:42;;;;;;;116.10;52.63;;;5.60;95.10;;;;;;5053611;28;20164;-83
2021/04/19 05:23:09;;;;;;;127.47;52.97;;;5.60;95.10;;;;;;5052009;28;20215;-83
2021/04/19 05:25:34;;;;;;;106.27;50.57;;;5.70;95.10;;;;;;5051964;28;20275;-83
2021/04/19 05:28:00;;;;;;;127.27;50.80;;;5.70;95.10;;;;;;5051892;28;20255;-82
2021/04/19 05:30:27;;;;;;;121.10;50.60;;;5.70;95.20;;;;;;5053203;28;20218;-83
2021/04/19 05:32:53;;;;;;;114.50;51.07;;;5.70;95.10;;;;;;5053123;28;20196;-83
2021/04/19 05:35:21;;;;;;;105.43;53.03;;;5.70;95.20;;;;;;5053138;28;20172;-83
2021/04/19 05:37:48;;;;;;;100.60;45.67;;;5.70;95.20;;;;;;5053208;28;20251;-83
2021/04/19 05:40:15;;;;;;;82.03;42.37;;;5.70;95.20;;;;;;5052884;28;20683;-83
2021/04/19 05:42:41;;;;;;;86.73;42.27;;;5.70;95.20;;;;;;5052985;28;20173;-82
2021/04/19 05:45:08;;;;;;;101.83;44.50;;;5.60;95.10;;;;;;5051933;28;20171;-82
2021/04/19 05:47:34;;;;;;;97.77;43.90;;;5.60;95.10;;;;;;5053264;28;20175;-83
2021/04/19 05:49:59;;;;;;;89.33;42.73;;;5.60;95.10;;;;;;5051808;28;20199;-83
2021/04/19 05:52:26;;;;;;;84.60;42.67;;;5.60;95.10;;;;;;5052878;28;20595;-83
2021/04/19 05:54:51;;;;;;;100.83;43.17;;;5.60;95.20;;;;;;5052970;28;20718;-83
2021/04/19 05:57:42;;;;;;;94.67;42.07;;;5.70;95.20;;;;;;5052919;28;20209;-83
2021/04/19 06:00:21;;;;;;;125.43;37.93;;;5.60;95.10;;;;;;5053805;28;20226;-83
2021/04/19 06:03:02;;;;;;;90.90;36.30;;;5.50;95.10;;;;;;5053156;28;20126;-82
2021/04/19 06:05:33;;;;;;;102.37;37.50;;;5.50;95.20;;;;;;5053993;28;20198;-83
2021/04/19 06:08:09;;;;;;;101.80;43.93;;;5.50;95.20;;;;;;5052353;28;20656;-82
2021/04/19 06:10:49;;;;;;;99.43;41.30;;;5.60;95.30;;;;;;5053092;28;20500;-83
2021/04/19 06:13:17;;;;;;;105.67;44.97;;;5.60;95.30;;;;;;5052779;28;20198;-83
2021/04/19 06:15:47;;;;;;;155.47;49.10;;;5.60;95.30;;;;;;5053205;28;20172;-83
2021/04/19 06:18:13;;;;;;;129.87;47.77;;;5.70;95.40;;;;;;5054615;28;20191;-83
2021/04/19 06:20:39;;;;;;;141.43;47.87;;;5.70;95.40;;;;;;5055448;28;20256;-83
2021/04/19 06:23:06;;;;;;;126.17;48.97;;;5.80;95.40;;;;;;5056872;28;20173;-83
2021/04/19 06:25:32;;;;;;;103.50;48.43;;;5.80;95.50;;;;;;5056599;28;20180;-82
2021/04/19 06:28:01;;;;;;;113.57;47.80;;;5.80;95.50;;;;;;5055170;28;20172;-83
2021/04/19 06:30:30;;;;;;;125.93;49.07;;;5.80;95.50;;;;;;5055183;28;20266;-83
2021/04/19 06:32:56;;;;;;;112.70;48.60;;;5.80;95.40;;;;;;5055169;28;20196;-82
2021/04/19 06:35:22;;;;;;;108.37;46.03;;;5.80;95.50;;;;;;5056581;28;20164;-83
2021/04/19 06:37:49;;;;;;;108.23;44.43;;;5.70;95.40;;;;;;5055164;28;20182;-83
2021/04/19 06:40:16;;;;;;;145.50;47.43;;;5.70;95.50;;;;;;5056328;28;20189;-83
2021/04/19 06:42:42;;;;;;;98.47;46.10;;;5.70;95.50;;;;;;5056372;28;20169;-83
2021/04/19 06:45:08;;;;;;;107.23;46.17;;;5.70;95.40;;;;;;5056183;28;20175;-83
2021/04/19 06:47:35;;;;;;;110.17;45.53;;;5.80;95.50;;;;;;5056176;28;20176;-82
2021/04/19 06:50:05;;;;;;;78.87;43.43;;;5.70;95.50;;;;;;5056395;28;20192;-82
2021/04/19 06:52:35;;;;;;;79.87;42.87;;;5.80;95.50;;;;;;5054851;28;20203;-83
2021/04/19 06:55:00;;;;;;;84.70;44.53;;;5.80;95.50;;;;;;5056217;28;20171;-84
2021/04/19 06:57:34;;;;;;;88.70;45.60;;;5.70;95.50;;;;;;5057139;28;20172;-83
2021/04/19 07:00:04;;;;;;;87.93;46.27;;;5.80;95.50;;;;;;5081334;22;20232;-83
2021/04/19 07:02:32;;;;;;;98.03;48.00;;;5.80;95.50;;;;;;5054843;28;20246;-82
2021/04/19 07:05:00;;;;;;;87.60;45.93;;;5.90;95.50;;;;;;5056775;28;20170;-83
2021/04/19 07:07:36;;;;;;;94.90;47.00;;;5.90;95.50;;;;;;5054865;28;20172;-82
2021/04/19 07:10:07;;;;;;;91.77;48.50;;;5.90;95.50;;;;;;5055832;28;20237;-82
2021/04/19 07:12:34;;;;;;;113.67;52.73;;;6.00;95.50;;;;;;5054492;28;20201;-82
2021/04/19 07:15:04;;;;;;;120.47;51.50;;;6.10;95.60;;;;;;5054204;28;20174;-83
2021/04/19 07:17:30;;;;;;;110.27;51.80;;;6.00;95.50;;;;;;5054273;28;20177;-83
2021/04/19 07:19:56;;;;;;;95.57;47.43;;;6.10;95.50;;;;;;5055475;28;20193;-83
2021/04/19 07:22:22;;;;;;;89.77;48.33;;;6.20;95.60;;;;;;5055352;28;20261;-83
2021/04/19 07:24:49;;;;;;;92.20;48.10;;;6.00;95.40;;;;;;5054060;28;20177;-83
2021/04/19 07:27:15;;;;;;;86.50;47.60;;;6.00;95.40;;;;;;5055263;28;20183;-83
2021/04/19 07:29:41;;;;;;;96.00;49.30;;;6.10;95.50;;;;;;5054886;28;20193;-82
2021/04/19 07:32:08;;;;;;;79.10;43.43;;;6.10;95.40;;;;;;5055107;28;20183;-82
2021/04/19 07:34:35;;;;;;;85.50;46.10;;;6.10;95.40;;;;;;5056924;28;20225;-83
2021/04/19 07:37:04;;;;;;;85.30;46.00;;;6.20;95.40;;;;;;5054164;28;20172;-82
2021/04/19 07:39:33;;;;;;;77.13;41.73;;;6.10;95.30;;;;;;5055700;28;20195;-82
2021/04/19 07:42:01;;;;;;;73.53;40.97;;;6.30;95.40;;;;;;5054049;28;20290;-83
2021/04/19 07:44:43;;;;;;;81.20;43.47;;;6.30;95.40;;;;;;5055520;28;20176;-82
2021/04/19 07:47:37;;;;;;;87.40;45.47;;;6.30;95.30;;;;;;5054060;28;20165;-82
2021/04/19 07:50:12;;;;;;;97.40;46.47;;;6.30;95.30;;;;;;5055223;28;20753;-82
2021/04/19 07:52:50;;;;;;;83.20;43.03;;;6.30;95.30;;;;;;5055268;28;20685;-83
2021/04/19 07:55:18;;;;;;;86.57;43.87;;;6.50;95.30;;;;;;5053756;28;20638;-82
2021/04/19 07:57:47;;;;;;;88.77;44.33;;;6.50;95.20;;;;;;5054958;28;20166;-81
2021/04/19 08:00:32;;;;;;;77.93;42.60;;;6.50;95.20;;;;;;5054731;28;20281;-82
2021/04/19 08:03:16;;;;;;;79.97;41.50;;;6.50;95.00;;;;;;5053557;28;20549;-83
2021/04/19 08:05:51;;;;;;;78.07;42.17;;;6.60;95.10;;;;;;5054868;28;20161;-82
2021/04/19 08:08:35;;;;;;;82.97;43.37;;;6.60;94.90;;;;;;5053668;28;20256;-81
2021/04/19 08:11:09;;;;;;;86.43;44.67;;;6.70;94.90;;;;;;5055346;28;20163;-82
2021/04/19 08:13:35;;;;;;;83.03;44.37;;;6.80;94.90;;;;;;5055686;28;20226;-82
2021/04/19 08:16:20;;;;;;;83.70;44.83;;;6.80;94.90;;;;;;5053570;28;20170;-82
2021/04/19 08:18:46;;;;;;;88.47;45.80;;;6.80;94.80;;;;;;5054679;28;20166;-83
2021/04/19 08:21:12;;;;;;;83.50;44.03;;;6.90;94.90;;;;;;5054391;28;20168;-83
2021/04/19 08:23:44;;;;;;;84.17;45.87;;;7.00;94.80;;;;;;5054728;28;20269;-82
2021/04/19 08:26:11;;;;;;;89.87;47.83;;;7.00;94.70;;;;;;5054426;28;20164;-82
2021/04/19 08:28:44;;;;;;;85.47;45.53;;;7.10;94.60;;;;;;5053028;28;20182;-82
2021/04/19 08:31:11;;;;;;;76.33;43.23;;;7.20;94.60;;;;;;5054821;28;20178;-83
2021/04/19 08:33:38;;;;;;;78.30;42.67;;;7.30;94.50;;;;;;5054493;28;20193;-82
2021/04/19 08:36:07;;;;;;;70.40;39.67;;;7.30;94.50;;;;;;5054684;28;20170;-82
2021/04/19 08:38:34;;;;;;;71.17;41.73;;;7.30;94.20;;;;;;5054366;28;20166;-82
2021/04/19 08:40:59;;;;;;;70.63;40.23;;;7.40;94.10;;;;;;5054099;28;20179;-82
2021/04/19 08:43:28;;;;;;;66.57;40.53;;;7.50;94.00;;;;;;5054255;28;20653;-82
2021/04/19 08:45:55;;;;;;;63.53;39.47;;;7.50;93.90;;;;;;5053999;28;20649;-82
2021/04/19 08:48:21;;;;;;;55.27;35.67;;;7.60;93.90;;;;;;5053949;28;20246;-82
2021/04/19 08:50:51;;;;;;;49.07;32.43;;;7.80;94.00;;;;;;5052554;28;20268;-82
2021/04/19 08:53:18;;;;;;;52.97;34.70;;;7.80;93.50;;;;;;5054540;28;20179;-82
2021/04/19 08:55:45;;;;;;;51.00;33.30;;;7.90;93.40;;;;;;5054178;28;20192;-82
2021/04/19 08:58:12;;;;;;;46.43;32.40;;;8.00;93.20;;;;;;5052667;28;20251;-82
2021/04/19 09:00:45;;;;;;;42.03;29.57;;;8.00;93.00;;;;;;5052319;28;20306;-81
2021/04/19 09:03:11;;;;;;;42.73;29.67;;;8.00;92.70;;;;;;5052604;28;20171;-81
2021/04/19 09:05:38;;;;;;;37.87;27.33;;;8.10;92.50;;;;;;5053480;28;20260;-81
2021/04/19 09:08:09;;;;;;;38.23;28.37;;;8.00;91.80;;;;;;5052256;28;20186;-81
2021/04/19 09:10:53;;;;;;;40.93;28.93;;;8.00;92.10;;;;;;5054542;28;20205;-81
2021/04/19 09:13:42;;;;;;;36.23;25.47;;;8.30;92.50;;;;;;5053816;28;20212;-82
2021/04/19 09:16:16;;;;;;;33.13;24.33;;;8.30;91.40;;;;;;5053770;28;20552;-82
2021/04/19 09:18:52;;;;;;;34.93;25.30;;;8.30;91.20;;;;;;5053600;28;20216;-82
2021/04/19 09:21:33;;;;;;;35.00;24.93;;;8.30;91.30;;;;;;5052577;28;20251;-82
2021/04/19 09:23:59;;;;;;;34.33;27.27;;;8.50;91.80;;;;;;5053691;28;20233;-82
2021/04/19 09:26:44;;;;;;;33.70;25.20;;;8.60;91.80;;;;;;5053485;28;20176;-82
2021/04/19 09:29:31;;;;;;;31.80;23.90;;;8.80;91.40;;;;;;5052098;28;20573;-82
2021/04/19 09:32:08;;;;;;;32.83;24.50;;;8.90;90.90;;;;;;5053538;28;20653;-82
2021/04/19 09:34:48;;;;;;;30.57;23.80;;;8.90;90.40;;;;;;5052461;28;20199;-82
2021/04/19 09:37:23;;;;;;;32.73;23.60;;;8.90;90.20;;;;;;5054134;28;20148;-82
2021/04/19 09:39:58;;;;;;;31.73;25.03;;;9.00;90.10;;;;;;5053873;28;20289;-82
2021/04/19 09:43:07;;;;;;;34.33;22.87;;;9.30;90.10;;;;;;5052219;28;20178;-82
2021/04/19 09:45:41;;;;;;;31.27;22.70;;;9.50;89.30;;;;;;5053431;28;20176;-82
2021/04/19 09:48:40;;;;;;;27.77;21.67;;;9.70;88.90;;;;;;5053145;28;20168;-82
2021/04/19 09:51:19;;;;;;;26.07;20.97;;;10.20;88.70;;;;;;5020209;28;20175;-82
2021/04/19 09:53:50;;;;;;;29.17;22.33;;;10.10;87.30;;;;;;5057189;28;20179;-82
2021/04/19 09:56:21;;;;;;;26.17;20.97;;;9.90;87.00;;;;;;5056098;28;20542;-82
2021/04/19 09:58:47;;;;;;;26.47;22.07;;;10.20;87.30;;;;;;5057106;28;20203;-80
2021/04/19 10:01:13;;;;;;;25.43;20.90;;;10.30;87.00;;;;;;5059101;28;20163;-81
2021/04/19 10:03:40;;;;;;;29.23;22.00;;;10.30;87.00;;;;;;5057282;28;20172;-82
2021/04/19 10:06:07;;;;;;;28.90;20.57;;;10.70;87.70;;;;;;5057134;28;20172;-80
2021/04/19 10:08:40;;;;;;;28.47;21.57;;;10.80;85.30;;;;;;5055861;28;20202;-81
2021/04/19 10:11:06;;;;;;;28.50;20.40;;;10.90;86.00;;;;;;5057442;28;20191;-80
2021/04/19 10:13:36;;;;;;;27.07;20.67;;;11.10;85.20;;;;;;5056836;28;20559;-81
2021/04/19 10:16:12;;;;;;;25.97;20.17;;;11.10;83.90;;;;;;5055793;28;20601;-80
2021/04/19 10:18:46;;;;;;;23.30;19.53;;;11.00;83.70;;;;;;5056664;28;20653;-81
2021/04/19 10:21:26;;;;;;;23.53;20.70;;;11.10;83.80;;;;;;5056749;28;20621;-81
2021/04/19 10:23:53;;;;;;;25.33;20.33;;;11.20;84.90;;;;;;5057047;28;20159;-81
2021/04/19 10:26:37;;;;;;;30.70;21.27;;;11.50;83.90;;;;;;5056647;28;20176;-81
2021/04/19 10:29:13;;;;;;;26.13;21.13;;;11.60;83.10;;;;;;5056546;28;20253;-82
2021/04/19 10:31:47;;;;;;;25.67;20.60;;;11.80;83.60;;;;;;5057058;28;20610;-81
2021/04/19 10:34:12;;;;;;;23.07;20.00;;;11.80;82.20;;;;;;5056510;28;20195;-81
2021/04/19 10:36:46;;;;;;;24.80;20.27;;;11.90;82.20;;;;;;5056781;28;20172;-82
2021/04/19 10:39:16;;;;;;;27.53;20.57;;;11.90;82.20;;;;;;5056968;28;20191;-81
2021/04/19 10:41:42;;;;;;;25.20;21.30;;;11.80;81.70;;;;;;5056612;28;20542;-81
2021/04/19 10:44:08;;;;;;;22.00;18.67;;;11.80;82.20;;;;;;5056190;28;20225;-82
2021/04/19 10:46:37;;;;;;;25.57;19.97;;;12.00;82.00;;;;;;5057001;28;20172;-81
2021/04/19 10:49:04;;;;;;;27.03;20.40;;;12.20;80.50;;;;;;5056241;28;20249;-82
2021/04/19 10:51:31;;;;;;;24.40;19.50;;;12.30;81.40;;;;;;5056094;28;20171;-81
2021/04/19 10:54:00;;;;;;;23.43;19.13;;;12.20;80.20;;;;;;5056078;28;20668;-81
2021/04/19 10:56:26;;;;;;;23.30;18.87;;;12.30;79.20;;;;;;5056125;28;20164;-82
2021/04/19 10:58:55;;;;;;;23.33;19.23;;;12.50;80.50;;;;;;5055971;28;20231;-82
2021/04/19 11:01:31;;;;;;;23.33;19.20;;;12.70;79.10;;;;;;5054889;28;20176;-82
2021/04/19 11:03:59;;;;;;;24.10;18.70;;;12.80;79.40;;;;;;5055271;28;20577;-82
2021/04/19 11:06:25;;;;;;;22.87;19.67;;;12.90;77.10;;;;;;5055894;28;20168;-82
2021/04/19 11:08:53;;;;;;;25.50;18.80;;;13.00;76.30;;;;;;5055660;28;20196;-81
2021/04/19 11:11:26;;;;;;;20.87;18.27;;;13.20;77.40;;;;;;5055835;28;20179;-82
2021/04/19 11:13:53;;;;;;;21.40;17.50;;;13.70;77.90;;;;;;5054392;28;20284;-82
2021/04/19 11:16:22;;;;;;;21.87;18.47;;;14.00;74.80;;;;;;5055711;28;20168;-82
2021/04/19 11:18:51;;;;;;;25.60;17.13;;;13.80;73.50;;;;;;5054544;28;20192;-82
2021/04/19 11:21:34;;;;;;;22.90;17.83;;;13.70;72.80;;;;;;5054414;28;20183;-82
2021/04/19 11:24:15;;;;;;;18.53;16.37;;;13.60;73.30;;;;;;5054495;28;20180;-82
2021/04/19 11:26:42;;;;;;;22.17;16.83;;;13.80;72.10;;;;;;5054396;28;20177;-82
2021/04/19 11:29:08;;;;;;;22.53;19.13;;;13.80;72.60;;;;;;5055707;28;20196;-82
2021/04/19 11:31:44;;;;;;;21.10;17.70;;;14.00;73.30;;;;;;5055591;28;20645;-81
2021/04/19 11:34:15;;;;;;;20.90;17.17;;;14.30;72.70;;;;;;5054301;28;20631;-81
2021/04/19 11:36:43;;;;;;;22.00;18.03;;;14.40;72.70;;;;;;5055911;28;20535;-83
2021/04/19 11:39:20;;;;;;;20.23;17.93;;;14.30;71.20;;;;;;5055438;28;20231;-82
2021/04/19 11:41:48;;;;;;;23.30;18.37;;;14.30;71.20;;;;;;5055474;28;20155;-82
2021/04/19 11:44:15;;;;;;;20.50;18.33;;;14.40;71.30;;;;;;5055268;28;20172;-82
2021/04/19 11:46:47;;;;;;;22.10;17.83;;;14.40;69.30;;;;;;5055237;28;20172;-82
2021/04/19 11:49:17;;;;;;;19.60;17.50;;;14.80;70.90;;;;;;5053939;28;20203;-82
2021/04/19 11:51:44;;;;;;;20.13;17.60;;;14.90;70.00;;;;;;5055349;28;20214;-81
2021/04/19 11:54:11;;;;;;;22.50;17.13;;;15.30;68.70;;;;;;5055169;28;20203;-82
2021/04/19 11:56:37;;;;;;;19.27;17.10;;;15.30;68.10;;;;;;5055096;28;20175;-83
2021/04/19 11:59:03;;;;;;;18.73;16.73;;;15.40;66.90;;;;;;5054722;28;20275;-82
2021/04/19 12:01:29;;;;;;;20.60;16.27;;;15.50;67.30;;;;;;5054822;28;20245;-82
2021/04/19 12:03:55;;;;;;;18.80;16.23;;;15.70;66.20;;;;;;5053654;28;20172;-82
2021/04/19 12:06:23;;;;;;;19.85;17.33;;;15.90;63.80;;;;;;5055043;28;20533;-82
2021/04/19 12:08:49;;;;;;;17.73;15.48;;;16.10;66.00;;;;;;5054650;28;20184;-82
2021/04/19 12:11:18;;;;;;;20.75;16.05;;;16.30;62.80;;;;;;5054316;28;20263;-82
2021/04/19 12:13:45;;;;;;;16.83;14.95;;;15.80;62.80;;;;;;5062796;28;20219;-82
2021/04/19 12:16:11;;;;;;;20.33;15.75;;;15.90;61.70;;;;;;5064230;28;20543;-82
2021/04/19 12:18:37;;;;;;;17.42;15.20;;;16.00;63.10;;;;;;5065009;28;20187;-82
2021/04/19 12:21:05;;;;;;;18.60;14.80;;;16.20;62.90;;;;;;5060366;28;20176;-82
2021/04/19 12:23:30;;;;;;;16.33;14.23;;;16.10;60.30;;;;;;5057543;28;20171;-83
2021/04/19 12:25:57;;;;;;;15.13;12.98;;;16.20;60.70;;;;;;5059248;28;20605;-82
2021/04/19 12:28:24;;;;;;;15.75;12.13;;;16.40;58.80;;;;;;5058812;28;20198;-84
2021/04/19 12:30:50;;;;;;;14.18;11.88;;;16.50;57.90;;;;;;5059544;28;20269;-85
2021/04/19 12:33:17;;;;;;;11.55;10.23;;;16.60;58.20;;;;;;5058751;28;20200;-83
2021/04/19 12:35:43;;;;;;;17.23;11.50;;;16.60;56.60;;;;;;5058327;28;20586;-83
2021/04/19 12:38:09;;;;;;;11.55;10.00;;;16.40;56.80;;;;;;5059517;28;20195;-84
2021/04/19 12:40:36;;;;;;;13.55;10.02;;;16.50;54.40;;;;;;5055939;28;20676;-81
2021/04/19 12:43:02;;;;;;;16.08;10.55;;;16.50;54.80;;;;;;5055572;28;20657;-83
2021/04/19 12:45:36;;;;;;;11.95;10.15;;;16.50;56.20;;;;;;5055371;28;20197;-80